Time;durP1;ratioP1;P1;durP2;ratioP2;P2;SDS_P1;SDS_P2;PMS_P1;PMS_P2;Temp;Humidity;BMP_temperature;BMP_pressure;BME280_temperature;BME280_humidity;BME280_pressure;Samples;Min_cycle;Max_cycle;Signal;HPM_P1;HPM_P2
2023/03/29 00:01:15;;;;;;;3.80;1.48;;;;;;;2.04;59.29;100603.97;4394383;32;20390;-85
2023/03/29 00:03:42;;;;;;;1.98;1.00;;;;;;;2.02;59.29;100603.97;4381442;32;20157;-85
2023/03/29 00:06:08;;;;;;;3.12;1.20;;;;;;;2.00;59.29;100609.91;4382089;32;20241;-85
2023/03/29 00:08:36;;;;;;;2.20;1.27;;;;;;;1.97;59.28;100610.72;4381986;32;20507;-86
2023/03/29 00:11:02;;;;;;;6.82;1.42;;;;;;;1.87;59.28;100608.84;4394551;32;20414;-85
2023/03/29 00:13:27;;;;;;;3.47;1.67;;;;;;;1.74;59.27;100607.78;4381883;32;20098;-84
2023/03/29 00:15:53;;;;;;;5.78;1.42;;;;;;;1.83;59.28;100602.78;4381664;32;20205;-85
2023/03/29 00:18:19;;;;;;;2.45;1.02;;;;;;;1.77;59.28;100599.25;4381553;32;20094;-85
2023/03/29 00:20:44;;;;;;;2.50;1.33;;;;;;;1.79;59.28;100601.00;4381862;32;20536;-85
2023/03/29 00:23:10;;;;;;;3.15;1.20;;;;;;;1.79;59.27;100603.56;4381095;32;20388;-85
2023/03/29 00:25:35;;;;;;;4.47;1.60;;;;;;;1.72;59.27;100601.75;4381891;32;20141;-85
2023/03/29 00:28:00;;;;;;;6.03;1.60;;;;;;;1.54;59.26;100607.41;4381364;32;20152;-85
2023/03/29 00:30:26;;;;;;;2.70;1.35;;;;;;;1.42;59.26;100603.75;4381247;32;21909;-85
2023/03/29 00:32:51;;;;;;;4.53;1.75;;;;;;;1.46;59.25;100606.44;4392993;32;20398;-86
2023/03/29 00:35:17;;;;;;;3.83;1.65;;;;;;;1.52;59.26;100605.66;4394078;32;20154;-86
2023/03/29 00:37:45;;;;;;;3.70;1.48;;;;;;;1.61;59.26;100597.25;4381638;32;20194;-85
2023/03/29 00:40:11;;;;;;;3.75;1.60;;;;;;;1.39;59.25;100593.44;4394641;32;20124;-85
2023/03/29 00:42:37;;;;;;;3.40;1.48;;;;;;;1.48;59.25;100598.75;4381435;32;20431;-85
2023/03/29 00:45:08;;;;;;;3.20;1.70;;;;;;;1.34;59.25;100601.06;4381540;32;20117;-85
2023/03/29 00:47:40;;;;;;;6.60;2.17;;;;;;;1.26;59.25;100587.22;4393805;32;20120;-84
2023/03/29 00:50:09;;;;;;;6.43;2.17;;;;;;;1.21;59.24;100596.53;4382321;32;20085;-85
2023/03/29 00:52:35;;;;;;;3.72;1.73;;;;;;;1.24;59.24;100596.59;4371942;32;20162;-84
2023/03/29 00:55:02;;;;;;;4.87;2.20;;;;;;;1.32;59.24;100597.59;4381026;32;25403;-85
2023/03/29 00:57:28;;;;;;;9.82;2.58;;;;;;;1.18;59.24;100597.34;4381554;32;20483;-85
2023/03/29 00:59:54;;;;;;;8.85;2.65;;;;;;;1.07;59.23;100591.12;4368961;32;20090;-84
2023/03/29 01:02:24;;;;;;;7.07;2.50;;;;;;;1.09;59.23;100592.03;4381256;32;20150;-84
2023/03/29 01:05:05;;;;;;;12.32;3.22;;;;;;;1.17;59.23;100580.22;4381548;32;20102;-85
2023/03/29 01:07:56;;;;;;;16.73;3.37;;;;;;;1.05;59.24;100581.69;4381640;32;20106;-85
2023/03/29 01:10:42;;;;;;;6.37;2.53;;;;;;;1.05;59.23;100576.56;4382280;32;20116;-85
2023/03/29 01:13:17;;;;;;;10.55;2.80;;;;;;;1.00;59.22;100575.59;4381272;32;20131;-85
2023/03/29 01:15:43;;;;;;;8.15;2.47;;;;;;;1.02;59.23;100567.13;4382403;32;20094;-85
2023/03/29 01:18:08;;;;;;;9.52;3.08;;;;;;;0.99;59.23;100561.06;4381060;32;21040;-85
2023/03/29 01:20:42;;;;;;;16.08;5.25;;;;;;;1.02;59.23;100558.56;4368707;32;20159;-85
2023/03/29 01:23:32;;;;;;;28.33;6.82;;;;;;;1.24;59.24;100558.13;4393695;32;20469;-85
2023/03/29 01:26:29;;;;;;;;;;;;;;;1.16;59.24;100557.09;4408147;32;20127;-85
2023/03/29 01:29:01;;;;;;;39.97;9.65;;;;;;;1.16;59.24;100560.53;4381724;32;20007;-85
2023/03/29 01:31:31;;;;;;;33.72;10.13;;;;;;;1.12;59.24;100563.88;4381445;32;20098;-85
2023/03/29 01:34:04;;;;;;;10.77;4.55;;;;;;;1.16;59.24;100559.66;4393599;32;20504;-86
2023/03/29 01:36:59;;;;;;;11.20;3.55;;;;;;;0.91;59.23;100554.06;4381608;32;20435;-85
2023/03/29 01:39:24;;;;;;;4.37;1.98;;;;;;;1.03;59.23;100555.16;4378910;32;20128;-85
2023/03/29 01:42:25;;;;;;;4.78;1.75;;;;;;;0.85;59.22;100550.53;4381141;32;20090;-86
2023/03/29 01:44:56;;;;;;;5.12;2.30;;;;;;;0.88;59.22;100559.13;4345678;33;20117;-86
2023/03/29 01:47:41;;;;;;;5.62;2.20;;;;;;;0.74;59.21;100557.16;4395346;32;20094;-86
2023/03/29 01:50:12;;;;;;;6.43;1.75;;;;;;;0.72;59.21;100557.12;4393523;32;20140;-85
2023/03/29 01:52:51;;;;;;;3.60;1.67;;;;;;;0.51;59.20;100557.53;4407342;32;20078;-85
2023/03/29 01:55:20;;;;;;;6.43;1.60;;;;;;;0.47;59.20;100560.84;4369271;32;20095;-85
2023/03/29 01:57:46;;;;;;;5.10;1.85;;;;;;;0.43;59.19;100553.91;4381226;32;20517;-84
2023/03/29 02:00:15;;;;;;;4.45;1.90;;;;;;;0.62;59.21;100560.31;4393675;32;20102;-85
2023/03/29 02:02:42;;;;;;;4.22;1.90;;;;;;;0.61;59.21;100556.00;4393708;32;20181;-85
2023/03/29 02:05:08;;;;;;;3.15;1.48;;;;;;;0.68;59.21;100562.13;4393642;32;20451;-84
2023/03/29 02:07:36;;;;;;;4.65;1.65;;;;;;;0.64;59.21;100563.75;4381333;32;20566;-84
2023/03/29 02:10:03;;;;;;;5.40;1.87;;;;;;;0.58;59.20;100563.63;4381651;32;20109;-85
2023/03/29 02:12:29;;;;;;;7.45;2.17;;;;;;;0.66;59.22;100556.97;4380784;32;20082;-85
2023/03/29 02:14:56;;;;;;;6.53;2.60;;;;;;;0.67;59.22;100551.00;4393169;32;20101;-85
2023/03/29 02:17:25;;;;;;;14.82;4.43;;;;;;;0.58;59.20;100556.81;4407096;32;20094;-85
2023/03/29 02:19:58;;;;;;;34.23;8.27;;;;;;;0.54;59.20;100556.72;4380218;32;20615;-84
2023/03/29 02:22:27;;;;;;;32.92;8.60;;;;;;;0.61;59.21;100556.88;4381508;32;20200;-83
2023/03/29 02:24:55;;;;;;;41.67;11.35;;;;;;;0.55;59.20;100555.91;4381127;32;20089;-84
2023/03/29 02:27:20;;;;;;;40.22;11.73;;;;;;;0.50;59.20;100560.06;4381340;32;20152;-84
2023/03/29 02:29:46;;;;;;;38.78;11.98;;;;;;;0.39;59.20;100551.25;4393360;32;20141;-83
2023/03/29 02:32:15;;;;;;;34.25;10.23;;;;;;;0.29;59.18;100551.06;4381033;32;20487;-83
2023/03/29 02:34:48;;;;;;;18.00;5.10;;;;;;;0.25;59.19;100551.84;4381108;32;20082;-83
2023/03/29 02:37:16;;;;;;;22.02;6.37;;;;;;;0.16;59.18;100554.19;4381279;32;20086;-83
2023/03/29 02:39:42;;;;;;;21.92;6.55;;;;;;;0.22;59.18;100554.31;4381351;32;20101;-83
2023/03/29 02:42:07;;;;;;;31.23;8.80;;;;;;;0.01;59.18;100558.97;4380178;32;20168;-83
2023/03/29 02:44:35;;;;;;;30.42;8.43;;;;;;;0.19;59.18;100569.59;4380904;32;20106;-83
2023/03/29 02:47:14;;;;;;;32.17;9.82;;;;;;;0.17;59.18;100570.41;4380792;32;20124;-83
2023/03/29 02:49:40;;;;;;;32.30;8.55;;;;;;;0.07;59.17;100571.03;4393918;32;20106;-83
2023/03/29 02:52:09;;;;;;;25.92;7.18;;;;;;;0.09;59.18;100572.78;4392945;32;20514;-83
2023/03/29 02:54:36;;;;;;;16.73;5.12;;;;;;;-0.26;59.16;100576.19;4380818;32;20098;-83
2023/03/29 02:57:05;;;;;;;16.77;5.32;;;;;;;-0.31;59.15;100573.53;4381744;32;20102;-84
2023/03/29 02:59:30;;;;;;;13.48;4.40;;;;;;;-0.43;59.15;100576.66;4394772;32;20430;-85
2023/03/29 03:01:56;;;;;;;12.18;4.97;;;;;;;-0.28;59.16;100577.84;4381562;32;20090;-84
2023/03/29 03:04:21;;;;;;;14.73;4.85;;;;;;;-0.58;59.14;100583.91;4381730;32;20138;-84
2023/03/29 03:06:48;;;;;;;15.38;3.70;;;;;;;-0.37;59.15;100581.03;4381683;32;20124;-84
2023/03/29 03:09:13;;;;;;;14.90;4.28;;;;;;;-0.22;59.15;100584.00;4394307;32;20106;-84
2023/03/29 03:11:39;;;;;;;10.38;3.28;;;;;;;-0.38;59.15;100584.44;4407434;32;22300;-84
2023/03/29 03:14:05;;;;;;;6.57;2.55;;;;;;;-0.34;59.15;100583.69;4393961;32;20180;-84
2023/03/29 03:16:30;;;;;;;7.12;1.60;;;;;;;-0.45;59.14;100588.53;4394241;32;20109;-84
2023/03/29 03:18:56;;;;;;;3.78;2.12;;;;;;;-0.35;59.15;100589.63;4394114;32;20106;-84
2023/03/29 03:21:21;;;;;;;5.45;1.48;;;;;;;-0.33;59.15;100587.97;4394058;32;20423;-83
2023/03/29 03:23:47;;;;;;;3.67;1.62;;;;;;;-0.35;59.15;100590.50;4381522;32;20101;-84
2023/03/29 03:26:13;;;;;;;4.62;1.60;;;;;;;-0.29;59.15;100588.91;4381593;32;20157;-84
2023/03/29 03:28:38;;;;;;;4.05;1.90;;;;;;;-0.29;59.15;100588.91;4407932;32;20348;-84
2023/03/29 03:31:04;;;;;;;6.32;1.92;;;;;;;-0.37;59.15;100587.03;4393932;32;20517;-84
2023/03/29 03:33:29;;;;;;;5.95;2.10;;;;;;;-0.35;59.15;100584.50;4381567;32;20093;-83
2023/03/29 03:36:01;;;;;;;5.20;2.37;;;;;;;-0.45;59.14;100591.09;4393509;32;20101;-84
2023/03/29 03:38:31;;;;;;;4.22;1.77;;;;;;;-0.31;59.15;100587.16;4382778;32;20106;-83
2023/03/29 03:40:57;;;;;;;4.60;2.03;;;;;;;-0.37;59.14;100594.69;4381245;32;20094;-84
2023/03/29 03:43:22;;;;;;;11.18;2.67;;;;;;;-0.26;59.16;100591.53;4368792;32;20483;-84
2023/03/29 03:45:47;;;;;;;8.65;2.37;;;;;;;-0.40;59.15;100594.62;4381262;32;20447;-84
2023/03/29 03:48:13;;;;;;;6.57;1.90;;;;;;;-0.30;59.15;100593.16;4392738;32;20097;-83
2023/03/29 03:50:39;;;;;;;5.93;1.40;;;;;;;-0.33;59.15;100601.62;4393156;32;20310;-84
2023/03/29 03:53:04;;;;;;;8.27;2.25;;;;;;;-0.20;59.16;100609.63;4393640;32;20106;-85
2023/03/29 03:55:31;;;;;;;4.37;1.67;;;;;;;-0.09;59.16;100600.50;4393515;32;20125;-84
2023/03/29 03:57:56;;;;;;;4.10;1.65;;;;;;;-0.04;59.17;100596.34;4393740;32;20105;-84
2023/03/29 04:00:22;;;;;;;3.92;1.52;;;;;;;-0.05;59.17;100608.28;4380337;32;20156;-84
2023/03/29 04:02:47;;;;;;;4.30;1.55;;;;;;;-0.05;59.17;100608.28;4380894;32;20128;-84
2023/03/29 04:05:13;;;;;;;4.93;1.37;;;;;;;-0.10;59.16;100606.44;4380784;32;20726;-84
2023/03/29 04:07:40;;;;;;;3.37;1.40;;;;;;;-0.10;59.16;100609.00;4382188;32;20383;-85
2023/03/29 04:10:07;;;;;;;6.30;1.80;;;;;;;-0.18;59.16;100603.72;4395526;32;20149;-85
2023/03/29 04:12:33;;;;;;;6.30;2.10;;;;;;;-0.28;59.16;100598.31;4395808;32;20152;-85
2023/03/29 04:14:58;;;;;;;4.03;1.92;;;;;;;-0.15;59.16;100597.81;4383106;32;20125;-85
2023/03/29 04:17:24;;;;;;;4.62;1.48;;;;;;;-0.31;59.15;100605.06;4382538;32;20193;-84
2023/03/29 04:19:49;;;;;;;3.65;1.50;;;;;;;-0.20;59.16;100597.69;4382932;32;20102;-85
2023/03/29 04:22:15;;;;;;;3.35;1.85;;;;;;;-0.25;59.16;100600.94;4382519;32;20142;-85
2023/03/29 04:24:40;;;;;;;3.62;1.48;;;;;;;-0.15;59.16;100596.09;4382986;32;20110;-86
2023/03/29 04:27:06;;;;;;;5.97;1.60;;;;;;;-0.17;59.16;100600.31;4382561;32;20153;-86
2023/03/29 04:29:31;;;;;;;10.65;1.80;;;;;;;-0.11;59.17;100599.59;4382885;32;20168;-84
2023/03/29 04:31:57;;;;;;;3.50;1.45;;;;;;;-0.13;59.17;100599.56;4394930;32;20154;-87
2023/03/29 04:34:22;;;;;;;2.58;1.50;;;;;;;0.11;59.17;100606.97;4394968;32;23259;-87
2023/03/29 04:36:49;;;;;;;8.90;1.85;;;;;;;0.08;59.17;100614.56;4395212;32;20173;-86
2023/03/29 04:39:16;;;;;;;3.17;1.70;;;;;;;0.10;59.18;100610.34;4409357;32;20553;-86
2023/03/29 04:41:46;;;;;;;4.10;1.75;;;;;;;0.18;59.18;100619.06;4382853;32;20094;-87
2023/03/29 04:44:13;;;;;;;4.32;1.52;;;;;;;0.22;59.18;100609.75;4383457;32;20102;-85
2023/03/29 04:46:39;;;;;;;6.00;1.58;;;;;;;0.36;59.19;100621.22;4382295;32;20161;-86
2023/03/29 04:49:04;;;;;;;3.90;2.10;;;;;;;0.60;59.21;100615.78;4395708;32;20514;-86
2023/03/29 04:51:30;;;;;;;3.25;1.58;;;;;;;0.56;59.20;100617.41;4395406;32;20098;-87
2023/03/29 04:53:56;;;;;;;3.80;1.80;;;;;;;0.60;59.20;100616.63;4395191;32;20130;-85
2023/03/29 04:56:22;;;;;;;4.78;2.10;;;;;;;0.78;59.22;100618.75;4382845;32;20110;-85
2023/03/29 04:58:48;;;;;;;3.85;1.85;;;;;;;0.67;59.21;100622.75;4382923;32;20140;-86
2023/03/29 05:01:13;;;;;;;4.80;2.10;;;;;;;0.71;59.21;100616.87;4382910;32;20541;-86
2023/03/29 05:03:40;;;;;;;3.90;1.87;;;;;;;0.98;59.23;100613.16;4382313;32;24876;-87
2023/03/29 05:06:07;;;;;;;5.12;1.83;;;;;;;0.98;59.23;100613.16;4409073;32;20200;-88
2023/03/29 05:08:34;;;;;;;3.10;1.48;;;;;;;1.23;59.24;100617.94;4383172;32;20498;-87
2023/03/29 05:11:00;;;;;;;6.47;2.30;;;;;;;1.14;59.23;100612.63;4382724;32;20102;-88
2023/03/29 05:13:26;;;;;;;10.02;3.03;;;;;;;1.13;59.24;100610.88;4380386;32;20097;-88
2023/03/29 05:15:51;;;;;;;26.95;6.40;;;;;;;1.37;59.25;100613.06;4395050;32;20124;-90
2023/03/29 05:18:16;;;;;;;35.60;10.98;;;;;;;1.41;59.26;100613.16;4382003;32;20131;-85
2023/03/29 05:20:42;;;;;;;48.10;13.62;;;;;;;1.38;59.25;100604.53;4407458;32;20141;-84
2023/03/29 05:23:08;;;;;;;43.78;12.50;;;;;;;1.46;59.25;100609.00;4381814;32;22538;-84
2023/03/29 05:25:33;;;;;;;26.10;8.32;;;;;;;1.52;59.26;100609.09;4407712;32;20141;-84
2023/03/29 05:28:00;;;;;;;16.52;5.97;;;;;;;1.67;59.27;100599.94;4394731;32;20149;-85
2023/03/29 05:30:25;;;;;;;21.62;6.60;;;;;;;1.69;59.27;100600.84;4382522;32;20177;-85
2023/03/29 05:32:51;;;;;;;20.98;5.50;;;;;;;1.73;59.27;100603.47;4394919;32;20679;-85
2023/03/29 05:35:17;;;;;;;20.67;5.43;;;;;;;1.88;59.28;100596.87;4395015;32;20110;-85
2023/03/29 05:37:42;;;;;;;19.58;4.95;;;;;;;2.13;59.30;100594.75;4394279;32;22377;-85
2023/03/29 05:40:08;;;;;;;14.00;4.53;;;;;;;2.13;59.29;100593.88;4407667;32;20090;-85
2023/03/29 05:42:36;;;;;;;13.57;4.07;;;;;;;2.29;59.31;100593.25;4407368;32;20454;-83
2023/03/29 05:45:02;;;;;;;16.87;4.12;;;;;;;2.41;59.31;100600.28;4394776;32;20140;-83
2023/03/29 05:47:28;;;;;;;11.32;4.03;;;;;;;2.30;59.31;100600.09;4394801;32;20493;-84
2023/03/29 05:49:53;;;;;;;11.32;3.62;;;;;;;2.43;59.32;100601.16;4407169;32;20158;-83
2023/03/29 05:52:18;;;;;;;10.52;3.78;;;;;;;2.67;59.33;100601.50;4394542;32;20146;-84
2023/03/29 05:54:44;;;;;;;9.20;2.62;;;;;;;2.75;59.33;100610.19;4408778;32;20147;-86
2023/03/29 05:57:10;;;;;;;8.43;3.08;;;;;;;2.75;59.33;100614.47;4382203;32;20142;-84
2023/03/29 05:59:35;;;;;;;10.68;2.92;;;;;;;2.93;59.34;100608.69;4407395;32;20082;-83
2023/03/29 06:02:03;;;;;;;4.35;2.50;;;;;;;3.04;59.35;100609.69;4406918;32;20102;-84
2023/03/29 06:04:29;;;;;;;6.18;3.15;;;;;;;3.29;59.36;100597.97;4381768;32;20107;-84
2023/03/29 06:06:55;;;;;;;9.05;3.17;;;;;;;3.15;59.35;100610.69;4382111;32;20152;-84
2023/03/29 06:09:20;;;;;;;8.68;3.40;;;;;;;3.48;59.37;100605.03;4394140;32;20160;-83
2023/03/29 06:11:46;;;;;;;8.00;3.22;;;;;;;3.63;59.38;100607.78;4394219;32;20134;-83
2023/03/29 06:14:12;;;;;;;11.25;3.78;;;;;;;3.88;59.39;100608.88;4407413;32;20422;-83
2023/03/29 06:16:39;;;;;;;6.85;3.65;;;;;;;3.93;59.40;100614.06;4394903;32;20098;-84
2023/03/29 06:19:05;;;;;;;10.52;4.03;;;;;;;3.79;59.39;100606.22;4407395;32;20103;-84
2023/03/29 06:21:52;;;;;;;6.37;3.95;;;;;;;3.94;59.40;100608.06;4394787;32;20464;-84
2023/03/29 06:24:17;;;;;;;9.88;4.00;;;;;;;3.94;59.39;100606.34;4407639;32;20101;-84
2023/03/29 06:26:43;;;;;;;10.73;4.65;;;;;;;4.23;59.42;100618.59;4394258;32;20116;-84
2023/03/29 06:29:09;;;;;;;9.15;4.20;;;;;;;4.55;59.43;100618.81;4407244;32;20082;-85
2023/03/29 06:31:34;;;;;;;15.73;4.65;;;;;;;4.67;59.44;100618.03;4408401;32;20156;-84
2023/03/29 06:34:00;;;;;;;8.63;4.55;;;;;;;4.85;59.45;100607.81;4381791;32;20126;-85
2023/03/29 06:36:26;;;;;;;14.27;4.45;;;;;;;5.01;59.47;100614.78;4406901;32;20101;-85
2023/03/29 06:38:51;;;;;;;9.43;4.20;;;;;;;5.13;59.47;100617.41;4381890;32;20103;-85
2023/03/29 06:41:16;;;;;;;9.68;4.03;;;;;;;5.33;59.48;100614.03;4394112;32;20471;-85
2023/03/29 06:43:42;;;;;;;8.82;4.28;;;;;;;5.56;59.49;100607.19;4394183;32;20120;-86
2023/03/29 06:46:10;;;;;;;6.03;3.03;;;;;;;5.89;59.51;100600.34;4394142;32;20141;-85
2023/03/29 06:48:36;;;;;;;8.52;2.90;;;;;;;6.05;59.51;100596.94;4408073;32;20101;-86
2023/03/29 06:51:02;;;;;;;5.75;2.20;;;;;;;6.25;59.53;100599.53;4406912;32;20202;-85
2023/03/29 06:53:27;;;;;;;4.28;2.22;;;;;;;6.35;59.54;100599.50;4394329;32;20469;-86
2023/03/29 06:55:53;;;;;;;6.05;2.30;;;;;;;6.33;59.53;100608.12;4394470;32;20467;-86
2023/03/29 06:58:18;;;;;;;4.97;2.20;;;;;;;6.57;59.54;100605.50;4393909;32;20106;-86
2023/03/29 07:00:44;;;;;;;6.07;2.47;;;;;;;6.82;59.56;100603.72;4407079;32;20937;-86
2023/03/29 07:03:13;;;;;;;5.62;2.85;;;;;;;6.79;59.56;100611.50;4408256;32;20529;-85
2023/03/29 07:05:40;;;;;;;5.47;2.62;;;;;;;6.88;59.57;100613.22;4394916;32;20082;-86
2023/03/29 07:10:36;;;;;;;4.37;2.15;;;;;;;7.14;59.58;100613.09;4394215;32;20419;-86
2023/03/29 07:13:04;;;;;;;4.80;1.70;;;;;;;7.15;59.57;100618.28;4394505;32;20533;-86
2023/03/29 07:15:30;;;;;;;3.33;1.50;;;;;;;7.20;59.58;100624.28;4406796;32;20094;-84
2023/03/29 07:17:56;;;;;;;3.17;1.60;;;;;;;7.35;59.59;100628.56;4394239;32;20105;-85
2023/03/29 07:20:21;;;;;;;5.40;1.80;;;;;;;7.44;59.60;100630.22;4408169;32;20499;-85
2023/03/29 07:22:47;;;;;;;4.10;1.50;;;;;;;7.66;59.61;100631.81;4394059;32;20766;-85
2023/03/29 07:25:14;;;;;;;5.10;2.03;;;;;;;7.79;59.62;100632.59;4394305;32;20082;-85
2023/03/29 07:27:41;;;;;;;2.53;1.33;;;;;;;7.84;59.63;100641.22;4394528;32;20102;-85
2023/03/29 07:30:10;;;;;;;3.95;1.85;;;;;;;8.14;59.63;100637.53;4381588;32;20129;-85
2023/03/29 07:32:36;;;;;;;4.80;1.30;;;;;;;7.97;59.62;100641.13;4394358;32;20128;-85
2023/03/29 07:35:06;;;;;;;2.17;1.02;;;;;;;8.01;59.63;100635.03;4407866;32;20116;-85
2023/03/29 07:37:33;;;;;;;2.95;1.05;;;;;;;8.16;59.64;100628.88;4381738;32;20132;-85
2023/03/29 07:40:03;;;;;;;2.33;0.80;;;;;;;8.14;59.64;100625.44;4394001;32;20098;-85
2023/03/29 07:42:29;;;;;;;5.60;0.90;;;;;;;8.44;59.66;100624.34;4408539;32;20128;-84
2023/03/29 07:44:54;;;;;;;6.53;0.82;;;;;;;8.63;59.66;100629.34;4395922;32;20185;-85
2023/03/29 07:47:20;;;;;;;1.98;0.82;;;;;;;8.57;59.66;100631.13;4408375;32;20110;-85
2023/03/29 07:49:45;;;;;;;1.58;0.62;;;;;;;8.65;59.66;100638.84;4395942;32;20145;-84
2023/03/29 07:52:11;;;;;;;1.33;0.70;;;;;;;8.58;59.66;100627.66;4409226;32;20631;-85
2023/03/29 07:54:36;;;;;;;1.98;0.73;;;;;;;8.60;59.67;100630.25;4395533;32;20138;-85
2023/03/29 07:57:02;;;;;;;1.15;0.52;;;;;;;8.83;59.68;100632.59;4395878;32;20144;-85
2023/03/29 07:59:27;;;;;;;5.75;0.90;;;;;;;8.86;59.67;100625.62;4383271;32;20211;-85
2023/03/29 08:01:54;;;;;;;4.28;0.88;;;;;;;8.84;59.68;100623.94;4408268;32;20098;-85
2023/03/29 08:04:20;;;;;;;1.15;0.60;;;;;;;8.66;59.66;100626.72;4395924;32;20507;-85
2023/03/29 08:06:45;;;;;;;3.35;0.70;;;;;;;8.88;59.68;100623.87;4409537;32;20082;-85
2023/03/29 08:09:11;;;;;;;2.35;0.90;;;;;;;8.80;59.67;100630.91;4395612;32;20194;-85
2023/03/29 08:11:38;;;;;;;1.77;0.95;;;;;;;8.95;59.68;100621.22;4408088;32;20146;-85
2023/03/29 08:14:04;;;;;;;0.80;0.55;;;;;;;9.02;59.69;100622.88;4395633;32;20110;-85
2023/03/29 08:16:30;;;;;;;10.05;1.08;;;;;;;8.93;59.68;100621.22;4395781;32;20443;-85
2023/03/29 08:18:55;;;;;;;1.45;0.75;;;;;;;9.19;59.70;100626.09;4409484;32;20128;-85
2023/03/29 08:21:21;;;;;;;2.45;1.08;;;;;;;9.21;59.70;100621.75;4409055;32;22231;-85
2023/03/29 08:23:47;;;;;;;0.73;0.43;;;;;;;9.20;59.70;100622.63;4395511;32;20130;-85
2023/03/29 08:26:14;;;;;;;1.33;0.90;;;;;;;9.34;59.71;100614.69;4395764;32;20153;-85
2023/03/29 08:28:40;;;;;;;1.87;0.70;;;;;;;9.43;59.72;100617.13;4409419;32;20458;-85
2023/03/29 08:31:06;;;;;;;2.50;0.90;;;;;;;9.45;59.71;100624.03;4395524;32;20102;-85
2023/03/29 08:33:31;;;;;;;3.30;1.02;;;;;;;9.47;59.71;100618.84;4408264;32;20082;-85
2023/03/29 08:35:57;;;;;;;2.85;1.08;;;;;;;9.74;59.73;100610.66;4408234;32;20111;-85
2023/03/29 08:38:22;;;;;;;1.48;0.85;;;;;;;9.84;59.73;100611.34;4395540;32;20387;-85
2023/03/29 08:40:48;;;;;;;2.03;0.98;;;;;;;9.92;59.74;100611.22;4395365;32;20120;-86
2023/03/29 08:43:43;;;;;;;3.62;1.27;;;;;;;10.06;59.75;100607.53;4395462;32;20089;-85
2023/03/29 08:46:27;;;;;;;4.12;1.40;;;;;;;9.96;59.74;100611.19;4408283;32;20081;-85
2023/03/29 08:48:55;;;;;;;4.03;1.20;;;;;;;10.21;59.75;100603.00;4395492;32;20386;-85
2023/03/29 08:51:23;;;;;;;2.72;1.10;;;;;;;10.23;59.75;100603.84;4382822;32;20168;-85
2023/03/29 08:53:55;;;;;;;2.65;1.23;;;;;;;10.43;59.76;100593.94;4395216;32;20144;-85
2023/03/29 08:56:23;;;;;;;3.95;1.27;;;;;;;10.63;59.78;100593.56;4382783;32;20108;-85
2023/03/29 08:58:49;;;;;;;3.40;1.25;;;;;;;10.76;59.79;100590.72;4395407;32;20102;-85
2023/03/29 09:01:15;;;;;;;1.85;1.00;;;;;;;10.80;59.79;100580.22;4395335;32;20101;-85
2023/03/29 09:04:02;;;;;;;3.10;1.25;;;;;;;10.65;59.77;100587.47;4409269;32;20137;-85
2023/03/29 09:06:27;;;;;;;5.15;1.05;;;;;;;10.73;59.78;100582.09;4395339;32;20094;-85
2023/03/29 09:08:53;;;;;;;2.70;1.15;;;;;;;10.70;59.79;100580.41;4395239;32;20442;-85
2023/03/29 09:11:39;;;;;;;3.78;1.30;;;;;;;10.62;59.78;100577.06;4395236;32;20149;-85
2023/03/29 09:14:12;;;;;;;3.20;0.80;;;;;;;10.73;59.78;100580.34;4409185;32;20131;-85
2023/03/29 09:17:08;;;;;;;2.80;0.98;;;;;;;10.59;59.77;100579.75;4407874;32;20126;-85
2023/03/29 09:19:51;;;;;;;1.17;0.77;;;;;;;10.58;59.78;100567.62;4395212;32;20459;-85
2023/03/29 09:22:27;;;;;;;1.95;0.85;;;;;;;10.59;59.77;100571.94;4395134;32;20094;-86
2023/03/29 09:25:20;;;;;;;3.90;1.10;;;;;;;10.63;59.78;100572.72;4407945;32;20152;-86
2023/03/29 09:27:50;;;;;;;2.65;0.90;;;;;;;10.88;59.79;100565.28;4395602;32;20081;-85
2023/03/29 09:30:40;;;;;;;3.30;1.37;;;;;;;10.97;59.79;100563.38;4395155;32;20128;-85
2023/03/29 09:34:02;;;;;;;5.45;1.00;;;;;;;10.84;59.79;100564.50;4407943;32;20106;-86
2023/03/29 09:36:50;;;;;;;2.20;0.90;;;;;;;10.76;59.78;100563.81;4376573;32;20091;-84
2023/03/29 09:39:15;;;;;;;4.25;0.93;;;;;;;10.83;59.79;100560.19;4376541;32;20145;-85
2023/03/29 09:41:51;;;;;;;2.17;0.80;;;;;;;10.88;59.80;100555.72;4378231;32;20156;-85
2023/03/29 09:44:19;;;;;;;1.98;0.93;;;;;;;11.19;59.81;100548.16;4407861;32;20102;-85
2023/03/29 09:46:47;;;;;;;1.85;0.77;;;;;;;11.34;59.82;100553.00;4382561;32;20117;-85
2023/03/29 09:49:16;;;;;;;3.85;1.15;;;;;;;11.72;59.84;100550.41;4404632;32;92313;-85
2023/03/29 09:51:42;;;;;;;1.95;0.80;;;;;;;11.98;59.86;100543.69;4407933;32;20756;-84
2023/03/29 09:54:09;;;;;;;5.53;1.25;;;;;;;12.13;59.87;100534.63;4407992;32;20136;-85
2023/03/29 09:56:35;;;;;;;3.28;1.10;;;;;;;12.15;59.87;100531.97;4407902;32;20085;-85
2023/03/29 09:59:00;;;;;;;2.15;1.00;;;;;;;12.26;59.86;100538.63;4395190;32;20120;-85
2023/03/29 10:01:26;;;;;;;2.80;0.88;;;;;;;12.36;59.88;100533.19;4407245;32;21952;-85
2023/03/29 10:03:52;;;;;;;3.25;1.30;;;;;;;12.62;59.89;100533.31;4394854;32;20184;-85
2023/03/29 10:06:19;;;;;;;1.80;1.10;;;;;;;12.77;59.90;100526.78;4394936;32;20086;-85
2023/03/29 10:08:49;;;;;;;5.35;1.33;;;;;;;12.69;59.90;100519.19;4395095;32;20070;-85
2023/03/29 10:11:29;;;;;;;3.40;1.55;;;;;;;12.68;59.90;100514.84;4394915;32;20164;-84
2023/03/29 10:13:59;;;;;;;1.87;1.10;;;;;;;12.84;59.90;100502.22;4395055;32;20119;-85
2023/03/29 10:16:28;;;;;;;5.25;1.55;;;;;;;12.64;59.88;100504.53;4407646;32;20086;-85
2023/03/29 10:18:54;;;;;;;3.67;1.35;;;;;;;12.50;59.89;100504.91;4408819;32;20151;-84
2023/03/29 10:21:19;;;;;;;3.58;1.15;;;;;;;12.81;59.91;100511.00;4394669;32;20129;-84
2023/03/29 10:23:45;;;;;;;2.90;1.40;;;;;;;12.93;59.91;100504.53;4382271;32;20126;-85
2023/03/29 10:26:48;;;;;;;2.35;1.30;;;;;;;12.89;59.91;100505.53;4407538;32;20496;-85
2023/03/29 10:29:13;;;;;;;4.78;1.60;;;;;;;12.87;59.92;100502.97;4376455;32;20339;-85
2023/03/29 10:31:41;;;;;;;3.45;1.55;;;;;;;12.95;59.91;100502.75;4378893;32;20484;-85
2023/03/29 10:34:07;;;;;;;1.83;1.20;;;;;;;13.22;59.92;100498.47;4394899;32;20090;-85
2023/03/29 10:36:33;;;;;;;4.00;1.58;;;;;;;13.41;59.93;100493.53;4407331;32;20081;-84
2023/03/29 10:38:59;;;;;;;4.03;1.12;;;;;;;13.67;59.95;100484.84;4394565;32;20140;-85
2023/03/29 10:41:26;;;;;;;2.47;1.15;;;;;;;13.65;59.96;100479.66;4394552;32;20110;-85
2023/03/29 10:43:51;;;;;;;3.00;1.23;;;;;;;13.37;59.94;100482.31;4407054;32;20098;-85
2023/03/29 10:46:24;;;;;;;6.12;1.25;;;;;;;13.63;59.94;100476.22;4394164;32;20125;-85
2023/03/29 10:48:54;;;;;;;5.00;1.42;;;;;;;13.85;59.96;100475.53;4394397;32;20185;-84
2023/03/29 10:51:20;;;;;;;3.58;1.37;;;;;;;13.96;59.97;100470.75;4407269;32;20171;-84
2023/03/29 10:53:45;;;;;;;2.90;1.62;;;;;;;14.00;59.96;100468.00;4406716;32;21395;-85
2023/03/29 10:56:37;;;;;;;4.03;0.98;;;;;;;14.12;59.97;100464.09;4408199;32;20132;-86
2023/03/29 10:59:26;;;;;;;3.92;1.50;;;;;;;13.71;59.95;100466.34;4408387;32;20341;-84
2023/03/29 11:02:13;;;;;;;1.73;1.10;;;;;;;13.51;59.94;100471.41;4408238;32;20120;-84
2023/03/29 11:04:51;;;;;;;2.45;1.20;;;;;;;13.61;59.95;100471.97;4408293;32;20098;-84
2023/03/29 11:07:41;;;;;;;1.37;0.90;;;;;;;13.65;59.96;100468.34;4406969;32;20081;-85
2023/03/29 11:10:31;;;;;;;3.10;1.30;;;;;;;13.83;59.96;100462.50;4394375;32;20117;-85
2023/03/29 11:13:15;;;;;;;2.65;1.33;;;;;;;14.18;59.98;100456.03;4394154;32;20238;-84
2023/03/29 11:16:03;;;;;;;2.72;1.05;;;;;;;14.32;59.99;100453.78;4395625;32;20110;-84
2023/03/29 11:18:45;;;;;;;2.60;1.15;;;;;;;14.14;59.97;100450.03;4399284;32;20085;-85
2023/03/29 11:21:19;;;;;;;2.70;1.20;;;;;;;14.30;59.99;100444.28;4386535;32;20085;-85
2023/03/29 11:24:19;;;;;;;2.05;1.30;;;;;;;14.57;60.00;100439.81;4399133;32;20126;-85
2023/03/29 11:26:48;;;;;;;4.15;1.85;;;;;;;14.73;60.01;100439.19;4413037;32;20144;-85
2023/03/29 11:29:39;;;;;;;2.08;1.10;;;;;;;14.89;60.02;100438.56;4399084;32;20078;-84
2023/03/29 11:32:13;;;;;;;3.95;1.52;;;;;;;14.95;60.03;100426.09;4399164;32;20086;-85
2023/03/29 11:35:08;;;;;;;2.72;1.05;;;;;;;14.91;60.02;100428.91;4411769;32;20167;-85
2023/03/29 11:37:36;;;;;;;2.87;1.67;;;;;;;14.72;60.01;100434.00;4384925;32;20181;-86
2023/03/29 11:40:27;;;;;;;4.18;1.23;;;;;;;14.79;60.02;100430.22;4412889;32;20120;-85
2023/03/29 11:42:53;;;;;;;2.10;1.25;;;;;;;14.97;60.02;100429.50;4398911;32;20500;-84